»·PEaware :: N1399 KSFO-KVIS

N1399 :: KSFO-KVIS

FLIGHT INFORMATION

Flight Status: Arrived
Operator: Privately registered:
United States
More flights under this callsign
Pilot: David C. (16084)
Aircraft: ECLIPSE 500
(EA50)
More flights by this aircraft type
Origin: KSFO San Francisco Intl
United States
Destination: KVIS Visalia Mun
United States
More flights between these airports :: More routes between these airports
Route: +
File this flight plan on PilotEdge
Remarks: no ff
Altitude:
(Current/Filed)
17,500ft
Speed:
(Current/Filed)
344kts
Departed: 20-Jul-18 01:01 PM
Arrived: 20-Jul-18 01:43 PM
Distance/Time
Traveled:
162nm/0:42
Distance/Time
To Go:
Arrived

Flight Plot

Page will automatically refresh every two minutes.

Flight plan parsing failed; only flown route is shown


Map Options




Map Legend


Flown Route
Filed Route
Departure Airport
Arrival Airport
Navaid (VOR, NDB)
Fix

Horizontal Profiles

Position Reports

Time Latitude Longitude Heading Altitude Ground
Speed
20-Jul-18 12:46 37.627788 -122.384673 200 16ft 0kts
20-Jul-18 12:47 37.627788 -122.384673 200 16ft 0kts
20-Jul-18 12:48 37.627788 -122.384673 200 16ft 0kts
20-Jul-18 12:49 37.627788 -122.384673 200 16ft 0kts
20-Jul-18 12:50 37.627788 -122.384673 200 16ft 0kts
20-Jul-18 12:51 37.626753 -122.384727 149 16ft 15kts
20-Jul-18 12:52 37.623667 -122.377612 119 16ft 28kts
20-Jul-18 12:53 37.622360 -122.374548 118 16ft 0kts
20-Jul-18 12:54 37.621391 -122.372174 118 16ft 0kts
20-Jul-18 12:55 37.621284 -122.371917 118 16ft 10kts
20-Jul-18 12:56 37.618135 -122.364382 118 16ft 30kts
20-Jul-18 12:57 37.614605 -122.356779 175 16ft 8kts
20-Jul-18 12:58 37.614494 -122.356794 196 16ft 0kts
20-Jul-18 12:59 37.614494 -122.356794 196 16ft 0kts
20-Jul-18 13:00 37.614494 -122.356794 196 16ft 0kts
20-Jul-18 13:01 37.613762 -122.357676 296 16ft 0kts
20-Jul-18 13:02 37.618556 -122.369219 300 62ft 124kts
20-Jul-18 13:03 37.634602 -122.413294 293 1577ft 179kts
20-Jul-18 13:04 37.616363 -122.464212 231 2472ft 190kts
20-Jul-18 13:05 37.572724 -122.470638 150 2514ft 169kts
20-Jul-18 13:06 37.538034 -122.436412 110 2519ft 168kts
20-Jul-18 13:07 37.521309 -122.383244 110 2512ft 171kts
20-Jul-18 13:08 37.510171 -122.343255 110 4619ft 128kts
20-Jul-18 13:09 37.500206 -122.305077 110 6214ft 168kts
20-Jul-18 13:10 37.485574 -122.250063 110 8414ft 197kts
20-Jul-18 13:11 37.470431 -122.192293 110 10646ft 203kts
20-Jul-18 13:12 37.455210 -122.133474 110 12724ft 207kts
20-Jul-18 13:13 37.440358 -122.074762 110 14567ft 213kts
20-Jul-18 13:14 37.424191 -122.015579 118 16260ft 216kts
20-Jul-18 13:15 37.401712 -121.956135 117 16976ft 260kts
20-Jul-18 13:16 37.371974 -121.876003 116 16970ft 316kts
20-Jul-18 13:17 37.334639 -121.774862 116 16959ft 348kts
20-Jul-18 13:18 37.294492 -121.666288 116 17450ft 353kts
20-Jul-18 13:19 37.253008 -121.554539 116 17456ft 353kts
20-Jul-18 13:20 37.211554 -121.443260 116 17458ft 353kts
20-Jul-18 13:21 37.170328 -121.332984 117 17457ft 352kts
20-Jul-18 13:22 37.129040 -121.222949 117 17463ft 352kts
20-Jul-18 13:23 37.087567 -121.112919 116 17458ft 345kts
20-Jul-18 13:24 37.046872 -121.005223 115 17451ft 342kts
20-Jul-18 13:25 37.006290 -120.898013 115 17446ft 340kts
20-Jul-18 13:26 36.965864 -120.791657 116 17430ft 339kts
20-Jul-18 13:27 36.925271 -120.685382 116 17410ft 340kts
20-Jul-18 13:28 36.885131 -120.580619 116 17416ft 340kts
20-Jul-18 13:29 36.844268 -120.474314 116 17420ft 340kts
20-Jul-18 13:30 36.803140 -120.367669 116 17422ft 341kts
20-Jul-18 13:31 36.762963 -120.263834 117 17425ft 341kts
20-Jul-18 13:32 36.721773 -120.157727 117 17419ft 340kts
20-Jul-18 13:33 36.680532 -120.051850 117 17410ft 341kts
20-Jul-18 13:34 36.639184 -119.946062 117 17405ft 340kts
20-Jul-18 13:35 36.597751 -119.840401 117 17408ft 340kts
20-Jul-18 13:36 36.556905 -119.736499 117 17082ft 327kts
20-Jul-18 13:37 36.523929 -119.653027 117 14433ft 257kts
20-Jul-18 13:38 36.492595 -119.573862 116 11976ft 250kts
20-Jul-18 13:39 36.442811 -119.523292 145 8924ft 231kts
20-Jul-18 13:40 36.390729 -119.480525 126 5939ft 226kts
20-Jul-18 13:41 36.339931 -119.440393 138 3033ft 220kts
20-Jul-18 13:42 36.304000 -119.395183 143 1435ft 165kts
20-Jul-18 13:43 36.309384 -119.381405 312 407ft 115kts
20-Jul-18 13:44 36.321291 -119.394944 35 297ft 0kts
20-Jul-18 13:45 36.322551 -119.396037 315 297ft 22kts
20-Jul-18 13:46 36.324624 -119.396947 164 297ft 7kts
20-Jul-18 13:47 36.324487 -119.397007 222 297ft 0kts
20-Jul-18 13:48 36.324487 -119.397007 222 297ft 0kts
20-Jul-18 13:49 36.324487 -119.397007 222 297ft 0kts

Navigation Log

Ident Type
Flight plan parsing failed, navigation log unavailable